LYNI/INI METAR and TAF weather

Enter ICAO airport designator
Station Type Date Time Source
LYNI METAR 2019/10/14 06:30 UTC NOAA

LYNI 140630Z 17002KT CAVOK 13/10 Q1023 NOSIG


Station Type Date Time Source
LYNI Decoded METAR 2019/10/14 06:30 UTC NOAA

Nis, Serbia and Montenegro (LYNI) 43-20N 021-54E 202M
Oct 14, 2019 - 02:30 AM EDT / 2019.10.14 0630 UTC
Wind: from the S (170 degrees) at 2 MPH (2 KT):0
Visibility: greater than 7 mile(s):0
Temperature: 55 F (13 C)
Dew Point: 50 F (10 C)
Relative Humidity: 81%
Pressure (altimeter): 30.21 in. Hg (1023 hPa)
ob: LYNI 140630Z 17002KT CAVOK 13/10 Q1023 NOSIG
cycle: 6

Station Type Date Time Source
LYNI TAF 2019/10/14 06:21 UTC NOAA

TAF LYNI 140500Z 1406/1506 09005KT CAVOK TX29/1413Z TN08/1505Z

Example: see airport list